Time;durP1;ratioP1;P1;durP2;ratioP2;P2;SDS_P1;SDS_P2;PMS_P1;PMS_P2;Temp;Humidity;BMP_temperature;BMP_pressure;BME280_temperature;BME280_humidity;BME280_pressure;Samples;Min_cycle;Max_cycle;Signal;HPM_P1;HPM_P2
2021/10/30 00:02:20;;;;;;;21.38;15.23;;;14.60;99.90;;;;;;5090475;28;20414;-73
2021/10/30 00:04:46;;;;;;;24.75;15.40;;;14.60;99.90;;;;;;5068420;28;20415;-74
2021/10/30 00:07:15;;;;;;;23.80;15.25;;;14.60;99.90;;;;;;5070331;28;20905;-74
2021/10/30 00:09:41;;;;;;;25.33;16.30;;;14.60;99.90;;;;;;5087297;28;20404;-74
2021/10/30 00:12:07;;;;;;;23.60;16.10;;;14.60;99.90;;;;;;5087375;28;20401;-74
2021/10/30 00:14:32;;;;;;;22.08;16.08;;;14.50;99.90;;;;;;5085786;28;21032;-74
2021/10/30 00:16:58;;;;;;;24.20;16.70;;;14.60;99.90;;;;;;5087625;28;20496;-74
2021/10/30 00:19:24;;;;;;;23.50;17.37;;;14.50;99.90;;;;;;5086593;28;20401;-74
2021/10/30 00:21:52;;;;;;;22.85;16.60;;;14.50;99.90;;;;;;5089864;28;20412;-74
2021/10/30 00:24:19;;;;;;;22.95;17.90;;;14.50;99.90;;;;;;5089594;28;20418;-75
2021/10/30 00:26:44;;;;;;;27.23;18.17;;;14.50;99.90;;;;;;5068367;28;20448;-74
2021/10/30 00:29:10;;;;;;;28.03;18.50;;;14.50;99.90;;;;;;5088149;28;20418;-74
2021/10/30 00:31:36;;;;;;;25.23;18.98;;;14.50;99.90;;;;;;5086986;28;20442;-74
2021/10/30 00:34:01;;;;;;;26.95;18.98;;;14.40;99.90;;;;;;5086654;28;20770;-73
2021/10/30 00:36:27;;;;;;;27.47;18.50;;;14.40;99.90;;;;;;5069043;28;20450;-75
2021/10/30 00:38:53;;;;;;;28.75;18.98;;;14.40;99.90;;;;;;5086505;28;20468;-74
2021/10/30 00:41:19;;;;;;;27.67;18.33;;;14.40;99.90;;;;;;5101269;27;20417;-74
2021/10/30 00:43:44;;;;;;;26.35;18.98;;;14.30;99.90;;;;;;5085167;28;20458;-74
2021/10/30 00:46:10;;;;;;;27.75;19.42;;;14.30;99.90;;;;;;5068871;28;20498;-74
2021/10/30 00:48:36;;;;;;;24.37;18.57;;;14.30;99.90;;;;;;5087497;28;20493;-74
2021/10/30 00:51:04;;;;;;;30.52;19.95;;;14.30;99.90;;;;;;5085492;28;20444;-73
2021/10/30 00:53:31;;;;;;;30.33;20.10;;;14.30;99.90;;;;;;5087659;28;20420;-74
2021/10/30 00:56:00;;;;;;;27.83;19.25;;;14.30;99.90;;;;;;5065963;28;20406;-74
2021/10/30 00:58:29;;;;;;;30.25;19.60;;;14.20;99.90;;;;;;5086833;28;20413;-73
2021/10/30 01:00:54;;;;;;;27.10;18.38;;;14.20;99.90;;;;;;5100066;28;20427;-74
2021/10/30 01:03:20;;;;;;;26.65;18.50;;;14.10;99.90;;;;;;5072122;28;20902;-74
2021/10/30 01:05:46;;;;;;;28.90;19.00;;;14.10;99.90;;;;;;5069171;28;20444;-74
2021/10/30 01:08:13;;;;;;;25.38;18.55;;;14.10;99.90;;;;;;5086716;28;20485;-74
2021/10/30 01:10:40;;;;;;;25.48;17.67;;;14.10;99.90;;;;;;5085749;28;20440;-74
2021/10/30 01:13:06;;;;;;;22.45;17.13;;;14.10;99.90;;;;;;5087241;28;20417;-73
2021/10/30 01:15:31;;;;;;;23.95;17.25;;;14.10;99.90;;;;;;5067607;28;20422;-74
2021/10/30 01:17:57;;;;;;;23.30;17.05;;;14.00;99.90;;;;;;5069262;28;20417;-74
2021/10/30 01:20:27;;;;;;;24.35;16.85;;;14.00;99.90;;;;;;5084968;28;20413;-74
2021/10/30 01:23:01;;;;;;;28.50;17.13;;;14.00;99.90;;;;;;5086290;28;20418;-74
2021/10/30 01:25:27;;;;;;;23.23;16.33;;;14.00;99.90;;;;;;5084409;28;20871;-75
2021/10/30 01:27:54;;;;;;;23.58;15.95;;;14.00;99.90;;;;;;5087046;28;20390;-75
2021/10/30 01:30:22;;;;;;;22.08;16.27;;;14.00;99.90;;;;;;5085190;28;20439;-74
2021/10/30 01:33:06;;;;;;;24.60;16.33;;;14.00;99.90;;;;;;5084451;28;20413;-74
2021/10/30 01:35:38;;;;;;;19.50;15.05;;;14.00;99.90;;;;;;5084854;28;20409;-74
2021/10/30 01:38:05;;;;;;;21.40;15.65;;;14.10;99.90;;;;;;5084920;28;20968;-74
2021/10/30 01:40:37;;;;;;;23.33;15.95;;;14.10;99.90;;;;;;5085397;28;20865;-74
2021/10/30 01:43:03;;;;;;;23.13;15.38;;;14.00;99.90;;;;;;5086253;28;20471;-73
2021/10/30 01:45:30;;;;;;;22.70;15.52;;;14.10;99.90;;;;;;5067106;28;20406;-74
2021/10/30 01:47:57;;;;;;;20.33;15.30;;;14.10;99.90;;;;;;5085937;28;20972;-73
2021/10/30 01:50:23;;;;;;;19.52;15.07;;;14.10;99.90;;;;;;5083196;28;20410;-74
2021/10/30 01:52:50;;;;;;;21.38;15.23;;;14.10;99.90;;;;;;5087316;28;20808;-73
2021/10/30 01:55:18;;;;;;;21.17;15.30;;;14.10;99.90;;;;;;5087676;28;20422;-73
2021/10/30 01:57:45;;;;;;;20.52;15.02;;;14.10;99.90;;;;;;5085888;28;20409;-74
2021/10/30 02:00:11;;;;;;;20.48;15.27;;;14.10;99.90;;;;;;5083357;28;20482;-74
2021/10/30 02:02:39;;;;;;;19.77;15.25;;;14.10;99.90;;;;;;5084566;28;20409;-73
2021/10/30 02:05:10;;;;;;;20.95;14.75;;;14.10;99.90;;;;;;5067348;28;20490;-73
2021/10/30 02:07:37;;;;;;;19.63;15.43;;;14.10;99.90;;;;;;5068593;28;20949;-72
2021/10/30 02:10:04;;;;;;;19.90;15.40;;;14.10;99.90;;;;;;5067241;28;20495;-73
2021/10/30 02:12:29;;;;;;;22.85;16.92;;;14.10;99.90;;;;;;5085433;28;20487;-72
2021/10/30 02:14:55;;;;;;;22.70;17.27;;;14.20;99.90;;;;;;5085112;28;21183;-73
2021/10/30 02:17:22;;;;;;;24.02;17.88;;;14.20;99.90;;;;;;5084916;28;20769;-72
2021/10/30 02:19:48;;;;;;;24.00;18.67;;;14.20;99.90;;;;;;5085689;28;20501;-71
2021/10/30 02:22:14;;;;;;;25.15;18.70;;;14.20;99.90;;;;;;5086087;28;20414;-72
2021/10/30 02:24:39;;;;;;;24.00;19.33;;;14.30;99.90;;;;;;5083549;28;20413;-72
2021/10/30 02:27:05;;;;;;;23.83;19.42;;;14.30;99.90;;;;;;5085421;28;20413;-72
2021/10/30 02:29:31;;;;;;;24.03;19.13;;;14.30;99.90;;;;;;5085390;28;20466;-73
2021/10/30 02:31:57;;;;;;;23.83;19.02;;;14.30;99.90;;;;;;5068262;28;20404;-73
2021/10/30 02:34:23;;;;;;;24.02;20.05;;;14.40;99.90;;;;;;5083253;28;20456;-73
2021/10/30 02:36:49;;;;;;;25.88;20.48;;;14.40;99.90;;;;;;5085856;28;20500;-73
2021/10/30 02:39:14;;;;;;;23.70;19.90;;;14.40;99.90;;;;;;5067297;28;20843;-73
2021/10/30 02:41:40;;;;;;;24.67;20.58;;;14.50;99.90;;;;;;5084893;28;20453;-73
2021/10/30 02:44:06;;;;;;;25.87;20.50;;;14.50;99.90;;;;;;5086387;28;20400;-73
2021/10/30 02:46:32;;;;;;;24.38;20.73;;;14.40;99.90;;;;;;5083240;28;20929;-73
2021/10/30 02:48:58;;;;;;;28.30;21.50;;;14.40;99.90;;;;;;5086265;28;20471;-73
2021/10/30 02:51:23;;;;;;;25.42;20.67;;;14.40;99.90;;;;;;5084635;28;20495;-73
2021/10/30 02:53:50;;;;;;;25.90;21.60;;;14.40;99.90;;;;;;5084225;28;20421;-73
2021/10/30 02:56:16;;;;;;;26.70;20.93;;;14.40;99.90;;;;;;5084228;28;20417;-73
2021/10/30 02:58:41;;;;;;;26.15;20.98;;;14.40;99.90;;;;;;5067683;28;20510;-73
2021/10/30 03:01:07;;;;;;;24.33;20.17;;;14.40;99.90;;;;;;5066282;28;20493;-73
2021/10/30 03:03:32;;;;;;;24.53;19.13;;;14.40;99.90;;;;;;5085845;28;20503;-73
2021/10/30 03:05:58;;;;;;;24.45;18.20;;;14.40;99.90;;;;;;5083692;28;20405;-74
2021/10/30 03:08:24;;;;;;;21.10;17.33;;;14.40;99.90;;;;;;5085835;28;20870;-73
2021/10/30 03:10:49;;;;;;;22.03;16.10;;;14.40;99.90;;;;;;5083040;28;20417;-73
2021/10/30 03:13:15;;;;;;;20.55;16.20;;;14.40;99.90;;;;;;5084573;28;20421;-73
2021/10/30 03:15:41;;;;;;;21.63;15.40;;;14.30;99.90;;;;;;5084074;28;20456;-73
2021/10/30 03:18:07;;;;;;;18.13;14.77;;;14.30;99.90;;;;;;5086096;28;20401;-73
2021/10/30 03:20:33;;;;;;;19.13;14.50;;;14.30;99.90;;;;;;5085172;28;20418;-73
2021/10/30 03:22:59;;;;;;;17.35;13.02;;;14.30;99.90;;;;;;5089720;28;20420;-72
2021/10/30 03:25:25;;;;;;;17.50;12.13;;;14.30;99.90;;;;;;5071223;28;20402;-72
2021/10/30 03:27:51;;;;;;;16.00;11.68;;;14.30;99.90;;;;;;5086997;28;20401;-73
2021/10/30 03:30:17;;;;;;;15.60;11.40;;;14.30;99.90;;;;;;5070393;28;20487;-73
2021/10/30 03:32:43;;;;;;;14.10;10.93;;;14.30;99.90;;;;;;5089215;28;20402;-73
2021/10/30 03:35:09;;;;;;;16.37;10.77;;;14.30;99.90;;;;;;5070144;28;20778;-73
2021/10/30 03:37:36;;;;;;;16.35;11.20;;;14.30;99.90;;;;;;5088693;28;20456;-73
2021/10/30 03:40:04;;;;;;;15.37;10.60;;;14.30;99.90;;;;;;5088436;28;20768;-73
2021/10/30 03:42:31;;;;;;;15.35;10.80;;;14.30;99.90;;;;;;5088515;28;20448;-73
2021/10/30 03:44:57;;;;;;;15.65;10.98;;;14.30;99.90;;;;;;5087647;28;20409;-73
2021/10/30 03:47:23;;;;;;;17.00;11.70;;;14.30;99.90;;;;;;5088567;28;20895;-73
2021/10/30 03:49:48;;;;;;;16.45;11.48;;;14.30;99.90;;;;;;5086729;28;20411;-73
2021/10/30 03:52:14;;;;;;;16.47;11.90;;;14.30;99.90;;;;;;5070439;28;20414;-73
2021/10/30 03:54:40;;;;;;;16.95;12.63;;;14.30;99.90;;;;;;5088327;28;20531;-72
2021/10/30 03:57:06;;;;;;;17.50;13.17;;;14.30;99.90;;;;;;5088150;28;20444;-73
2021/10/30 03:59:33;;;;;;;19.30;13.37;;;14.30;99.90;;;;;;5085734;28;20719;-72
2021/10/30 04:02:02;;;;;;;16.45;13.50;;;14.30;99.90;;;;;;5087256;28;20410;-72
2021/10/30 04:04:28;;;;;;;18.00;13.88;;;14.30;99.90;;;;;;5085509;28;20413;-73
2021/10/30 04:06:54;;;;;;;19.10;14.73;;;14.20;99.90;;;;;;5103701;28;20405;-73
2021/10/30 04:09:21;;;;;;;20.08;15.00;;;14.20;99.90;;;;;;5093745;28;20404;-73
2021/10/30 04:11:47;;;;;;;19.45;16.17;;;14.20;99.90;;;;;;5088248;28;20406;-73
2021/10/30 04:14:13;;;;;;;20.77;16.58;;;14.10;99.90;;;;;;5088446;28;20542;-73
2021/10/30 04:16:40;;;;;;;22.33;16.83;;;14.10;99.90;;;;;;5069642;28;20409;-74
2021/10/30 04:19:06;;;;;;;23.50;16.80;;;14.10;99.90;;;;;;5084880;28;20479;-73
2021/10/30 04:21:32;;;;;;;21.60;16.83;;;14.10;99.90;;;;;;5068198;28;20417;-73
2021/10/30 04:23:58;;;;;;;22.73;17.33;;;14.00;99.90;;;;;;5087551;28;20443;-73
2021/10/30 04:26:26;;;;;;;22.77;18.15;;;14.00;99.90;;;;;;5102241;27;20417;-72
2021/10/30 04:28:52;;;;;;;23.48;18.10;;;14.00;99.90;;;;;;5087842;28;20473;-72
2021/10/30 04:31:24;;;;;;;21.87;17.20;;;13.90;99.90;;;;;;5089982;28;20530;-74
2021/10/30 04:33:55;;;;;;;23.08;17.50;;;13.90;99.90;;;;;;5071439;28;20418;-74
2021/10/30 04:36:24;;;;;;;23.80;17.67;;;13.90;99.90;;;;;;5052319;28;20508;-74
2021/10/30 04:38:50;;;;;;;20.65;16.23;;;13.90;99.90;;;;;;5087529;28;20477;-74
2021/10/30 04:41:18;;;;;;;22.90;17.25;;;13.90;99.90;;;;;;5085951;28;20849;-73
2021/10/30 04:43:44;;;;;;;20.63;16.35;;;13.90;99.90;;;;;;5087597;28;20423;-73
2021/10/30 04:46:12;;;;;;;20.97;16.83;;;13.90;99.90;;;;;;5072275;28;20424;-74
2021/10/30 04:48:39;;;;;;;20.83;16.60;;;13.90;99.90;;;;;;5052672;28;20877;-73
2021/10/30 04:51:06;;;;;;;19.60;15.83;;;13.90;99.90;;;;;;5086026;28;20436;-74
2021/10/30 04:53:34;;;;;;;19.73;15.75;;;13.90;99.90;;;;;;5068808;28;20421;-74
2021/10/30 04:56:01;;;;;;;18.75;15.55;;;13.90;99.90;;;;;;5066921;28;20417;-73
2021/10/30 04:58:28;;;;;;;19.70;15.90;;;13.90;99.90;;;;;;5087233;28;20402;-74
2021/10/30 05:00:56;;;;;;;19.80;16.25;;;13.90;99.90;;;;;;5071386;28;20413;-74
2021/10/30 05:03:22;;;;;;;20.92;16.63;;;13.90;99.90;;;;;;5086891;28;20485;-74
2021/10/30 05:05:48;;;;;;;24.02;16.60;;;13.90;99.90;;;;;;5085247;28;20508;-74
2021/10/30 05:08:14;;;;;;;21.37;16.43;;;13.90;99.90;;;;;;5085760;28;20496;-74
2021/10/30 05:10:39;;;;;;;21.85;16.83;;;13.90;99.90;;;;;;5086293;28;20425;-74
2021/10/30 05:13:05;;;;;;;23.23;17.07;;;13.90;99.90;;;;;;5087275;28;20487;-73
2021/10/30 05:15:32;;;;;;;24.30;18.30;;;13.90;99.90;;;;;;5092623;28;20416;-74
2021/10/30 05:17:59;;;;;;;25.52;18.85;;;13.90;99.90;;;;;;5091697;28;20420;-74
2021/10/30 05:20:25;;;;;;;26.67;18.95;;;13.90;99.90;;;;;;5069906;28;20504;-74
2021/10/30 05:22:51;;;;;;;26.27;19.30;;;13.90;99.90;;;;;;5086887;28;20417;-75
2021/10/30 05:25:17;;;;;;;24.85;19.05;;;13.80;99.90;;;;;;5068333;28;20417;-73
2021/10/30 05:27:42;;;;;;;26.87;18.83;;;13.80;99.90;;;;;;5098554;28;20471;-74
2021/10/30 05:30:08;;;;;;;24.73;19.30;;;13.80;99.90;;;;;;5085234;28;20409;-74
2021/10/30 05:32:34;;;;;;;24.33;19.10;;;13.80;99.90;;;;;;5086856;28;20405;-74
2021/10/30 05:35:26;;;;;;;29.13;19.92;;;13.70;99.90;;;;;;5062413;28;21617;-74
2021/10/30 05:38:16;;;;;;;28.45;20.15;;;13.80;99.90;;;;;;5086032;28;20418;-74
2021/10/30 05:40:41;;;;;;;29.95;19.60;;;13.70;99.90;;;;;;5083214;28;20890;-73
2021/10/30 05:43:07;;;;;;;26.83;19.88;;;13.70;99.90;;;;;;5086500;28;20426;-75
2021/10/30 05:45:33;;;;;;;25.70;18.93;;;13.70;99.90;;;;;;5085044;28;20414;-74
2021/10/30 05:47:59;;;;;;;27.87;19.87;;;13.70;99.90;;;;;;5068058;28;21930;-73
2021/10/30 05:50:25;;;;;;;26.08;19.13;;;13.70;99.90;;;;;;5084311;28;20406;-74
2021/10/30 05:52:50;;;;;;;23.83;17.90;;;13.70;99.90;;;;;;5065608;28;20411;-73
2021/10/30 05:55:16;;;;;;;24.33;18.07;;;13.70;99.90;;;;;;5084553;28;20413;-75
2021/10/30 05:57:42;;;;;;;25.13;17.50;;;13.70;99.90;;;;;;5086239;28;20394;-74
2021/10/30 06:00:08;;;;;;;24.67;17.03;;;13.80;99.90;;;;;;5068324;28;20413;-74
2021/10/30 06:02:38;;;;;;;24.77;17.07;;;13.70;99.90;;;;;;5087574;28;20418;-74
2021/10/30 06:05:04;;;;;;;21.30;16.27;;;13.70;99.90;;;;;;5067630;28;20410;-73
2021/10/30 06:07:29;;;;;;;20.17;16.15;;;13.80;99.90;;;;;;5085887;28;20410;-74
2021/10/30 06:09:55;;;;;;;25.73;17.08;;;13.80;99.90;;;;;;5067618;28;20445;-75
2021/10/30 06:12:21;;;;;;;24.65;17.23;;;13.80;99.90;;;;;;5085589;28;21010;-73
2021/10/30 06:14:46;;;;;;;20.97;16.20;;;13.80;99.90;;;;;;5087333;28;20522;-75
2021/10/30 06:17:12;;;;;;;21.07;16.70;;;13.80;99.90;;;;;;5094867;28;20439;-74
2021/10/30 06:19:37;;;;;;;21.67;16.60;;;13.80;99.90;;;;;;5064710;28;20464;-74
2021/10/30 06:22:03;;;;;;;23.57;16.47;;;13.80;99.90;;;;;;5089108;28;20407;-73
2021/10/30 06:24:29;;;;;;;21.40;16.93;;;13.80;99.90;;;;;;5085374;28;20420;-74
2021/10/30 06:26:55;;;;;;;20.10;16.77;;;13.80;99.90;;;;;;5084011;28;20420;-72
2021/10/30 06:29:20;;;;;;;24.30;17.40;;;13.80;99.90;;;;;;5083761;28;20417;-75
2021/10/30 06:31:46;;;;;;;22.93;17.23;;;13.80;99.90;;;;;;5084335;28;20425;-73
2021/10/30 06:34:12;;;;;;;21.95;17.50;;;13.80;99.90;;;;;;5085651;28;20390;-76
2021/10/30 06:36:38;;;;;;;24.05;17.50;;;13.80;99.90;;;;;;5072681;28;20437;-76
2021/10/30 06:39:03;;;;;;;23.67;17.80;;;13.80;99.90;;;;;;5067219;28;20898;-74
2021/10/30 06:41:29;;;;;;;26.50;19.10;;;13.80;99.90;;;;;;5062377;28;20924;-73
2021/10/30 06:43:55;;;;;;;25.17;17.95;;;13.80;99.90;;;;;;5101776;28;20417;-74
2021/10/30 06:46:20;;;;;;;25.00;18.40;;;13.70;99.90;;;;;;5081359;28;20400;-73
2021/10/30 06:48:49;;;;;;;25.40;18.73;;;13.70;99.90;;;;;;5101422;28;20429;-74
2021/10/30 06:51:15;;;;;;;23.27;17.25;;;13.70;99.90;;;;;;5085624;28;20449;-73
2021/10/30 06:53:42;;;;;;;23.90;18.27;;;13.70;99.90;;;;;;5084562;28;20443;-74
2021/10/30 06:56:08;;;;;;;26.20;19.40;;;13.70;99.90;;;;;;5088228;28;20940;-74
2021/10/30 06:58:33;;;;;;;30.57;18.63;;;13.80;99.90;;;;;;5070706;28;20439;-71
2021/10/30 07:00:59;;;;;;;24.63;18.23;;;13.70;99.90;;;;;;5084604;28;20978;-73
2021/10/30 07:03:25;;;;;;;26.23;18.52;;;13.80;99.90;;;;;;5077285;28;20494;-73
2021/10/30 07:05:51;;;;;;;23.98;18.58;;;13.80;99.90;;;;;;5086567;28;20411;-73
2021/10/30 07:08:16;;;;;;;22.73;17.90;;;13.70;99.90;;;;;;5070569;28;20414;-73
2021/10/30 07:10:42;;;;;;;24.85;17.92;;;13.70;99.90;;;;;;5069447;28;20414;-73
2021/10/30 07:13:08;;;;;;;21.85;16.90;;;13.70;99.90;;;;;;5068866;28;20414;-75
2021/10/30 07:15:33;;;;;;;24.57;17.43;;;13.70;99.90;;;;;;5100744;28;20767;-74
2021/10/30 07:17:59;;;;;;;22.13;16.47;;;13.80;99.90;;;;;;5085742;28;20413;-72
2021/10/30 07:20:25;;;;;;;22.45;16.27;;;13.70;99.90;;;;;;5086380;28;20420;-71
2021/10/30 07:22:51;;;;;;;21.00;15.97;;;13.70;99.90;;;;;;5086371;28;20416;-71
2021/10/30 07:25:22;;;;;;;21.33;15.90;;;13.70;99.90;;;;;;5082181;28;20418;-71
2021/10/30 07:27:49;;;;;;;20.35;15.50;;;13.70;99.90;;;;;;5086512;28;20496;-73
2021/10/30 07:30:16;;;;;;;22.50;15.43;;;13.80;99.90;;;;;;5091841;28;20404;-75
2021/10/30 07:32:42;;;;;;;20.10;14.80;;;13.70;99.90;;;;;;5093007;28;20842;-74
2021/10/30 07:35:08;;;;;;;20.23;15.60;;;13.80;99.90;;;;;;5090021;28;20423;-73
2021/10/30 07:37:34;;;;;;;20.88;14.55;;;13.80;99.90;;;;;;5091989;28;20410;-73
2021/10/30 07:40:01;;;;;;;20.13;14.85;;;13.80;99.90;;;;;;5077040;28;20412;-75
2021/10/30 07:42:27;;;;;;;22.17;15.30;;;13.70;99.90;;;;;;5093338;28;20420;-74
2021/10/30 07:44:53;;;;;;;21.50;14.63;;;13.80;99.90;;;;;;5086484;28;20734;-74
2021/10/30 07:47:20;;;;;;;20.10;14.80;;;13.80;99.90;;;;;;5080042;28;20896;-73
2021/10/30 07:49:45;;;;;;;21.38;14.93;;;13.80;99.90;;;;;;5069872;28;20453;-74
2021/10/30 07:52:12;;;;;;;24.17;14.80;;;13.80;99.90;;;;;;5070113;28;21143;-73
2021/10/30 07:54:39;;;;;;;22.58;15.27;;;13.80;99.90;;;;;;5089030;28;20777;-74
2021/10/30 07:57:06;;;;;;;20.03;15.20;;;13.80;99.90;;;;;;5088442;28;20414;-72
2021/10/30 07:59:32;;;;;;;21.30;15.67;;;13.80;99.90;;;;;;5087214;28;20393;-72
2021/10/30 08:01:59;;;;;;;23.27;15.30;;;13.80;99.90;;;;;;5089032;28;20852;-71
2021/10/30 08:04:26;;;;;;;21.27;15.83;;;13.80;99.90;;;;;;5087141;28;20815;-73
2021/10/30 08:06:51;;;;;;;18.35;14.30;;;13.80;99.90;;;;;;5087621;28;20436;-72
2021/10/30 08:09:17;;;;;;;21.00;15.13;;;13.80;99.90;;;;;;5088174;28;20421;-74
2021/10/30 08:11:43;;;;;;;19.73;15.13;;;13.80;99.90;;;;;;5086742;28;20422;-74
2021/10/30 08:14:09;;;;;;;19.17;14.00;;;13.80;99.90;;;;;;5088161;28;20426;-72
2021/10/30 08:16:34;;;;;;;20.55;14.65;;;13.80;99.90;;;;;;5091998;28;21280;-72
2021/10/30 08:19:00;;;;;;;21.33;14.90;;;13.80;99.90;;;;;;5068960;28;20422;-73
2021/10/30 08:21:26;;;;;;;20.00;14.10;;;13.80;99.90;;;;;;5087675;28;20429;-73
2021/10/30 08:23:51;;;;;;;21.27;14.40;;;13.80;99.90;;;;;;5086581;28;20559;-72
2021/10/30 08:26:18;;;;;;;18.83;13.87;;;13.80;99.90;;;;;;5069072;28;21091;-73
2021/10/30 08:28:48;;;;;;;18.02;13.38;;;13.80;99.90;;;;;;5086521;28;20437;-73
2021/10/30 08:31:14;;;;;;;19.95;13.55;;;13.80;99.90;;;;;;5085250;28;20861;-72
2021/10/30 08:33:39;;;;;;;17.95;13.50;;;13.80;99.90;;;;;;5068613;28;20476;-71
2021/10/30 08:36:05;;;;;;;15.90;12.50;;;13.90;99.90;;;;;;5085997;28;20459;-72
2021/10/30 08:38:32;;;;;;;18.03;12.90;;;13.90;99.90;;;;;;5067090;28;20454;-73
2021/10/30 08:40:59;;;;;;;17.48;12.35;;;13.90;99.90;;;;;;5087515;28;20448;-72
2021/10/30 08:43:25;;;;;;;16.67;11.55;;;13.90;99.90;;;;;;5069617;28;20416;-74
2021/10/30 08:45:52;;;;;;;16.80;11.87;;;13.90;99.90;;;;;;5090734;28;20426;-72
2021/10/30 08:48:19;;;;;;;16.50;11.55;;;13.90;99.90;;;;;;5102357;28;20413;-73
2021/10/30 08:50:45;;;;;;;15.33;11.37;;;13.90;99.90;;;;;;5068433;28;20439;-71
2021/10/30 08:53:11;;;;;;;16.45;11.23;;;13.90;99.90;;;;;;5085943;28;20898;-72
2021/10/30 08:55:37;;;;;;;16.58;10.88;;;13.90;99.90;;;;;;5085843;28;20412;-71
2021/10/30 08:58:13;;;;;;;16.03;11.90;;;13.90;99.90;;;;;;5087354;28;20405;-72
2021/10/30 09:00:48;;;;;;;15.85;11.90;;;13.90;99.90;;;;;;5067805;28;20417;-72
2021/10/30 09:03:15;;;;;;;16.70;11.30;;;14.00;99.90;;;;;;5087801;28;20412;-71
2021/10/30 09:05:48;;;;;;;17.15;11.23;;;14.00;99.90;;;;;;5086250;28;20793;-72
2021/10/30 09:08:14;;;;;;;15.07;11.10;;;14.00;99.90;;;;;;5086880;28;20410;-72
2021/10/30 09:10:43;;;;;;;15.82;10.93;;;14.00;99.90;;;;;;5086977;28;20534;-73
2021/10/30 09:13:11;;;;;;;14.43;10.85;;;14.00;99.90;;;;;;5068193;28;20402;-74
2021/10/30 09:15:38;;;;;;;15.38;10.60;;;14.00;99.90;;;;;;5084649;28;20475;-71
2021/10/30 09:18:42;;;;;;;12.68;9.75;;;14.10;99.90;;;;;;5087009;28;20398;-73
2021/10/30 09:21:12;;;;;;;13.77;9.55;;;14.10;99.90;;;;;;4984807;28;20420;-72
2021/10/30 09:23:58;;;;;;;12.43;9.63;;;14.00;99.90;;;;;;4999075;28;20482;-72
2021/10/30 09:26:25;;;;;;;14.35;9.85;;;14.10;99.90;;;;;;5052390;28;20413;-73
2021/10/30 09:28:58;;;;;;;12.52;9.82;;;14.10;99.90;;;;;;5090108;28;20415;-72
2021/10/30 09:31:26;;;;;;;13.13;9.70;;;14.10;99.90;;;;;;5098879;28;20444;-72
2021/10/30 09:33:53;;;;;;;11.77;9.85;;;14.10;99.90;;;;;;5101149;28;20398;-73
2021/10/30 09:36:21;;;;;;;15.80;10.00;;;14.10;99.90;;;;;;5067863;28;20560;-74
2021/10/30 09:38:55;;;;;;;15.10;10.48;;;14.10;99.90;;;;;;5060754;28;20398;-71
2021/10/30 09:41:33;;;;;;;15.87;10.17;;;14.10;99.90;;;;;;5070493;28;20421;-74
2021/10/30 09:44:17;;;;;;;16.27;10.55;;;14.00;99.90;;;;;;5067845;28;20793;-72
2021/10/30 09:46:53;;;;;;;13.23;10.05;;;14.00;99.90;;;;;;5066309;28;20458;-72
2021/10/30 09:49:18;;;;;;;14.82;10.32;;;14.00;99.90;;;;;;5086158;28;20543;-72
2021/10/30 09:51:53;;;;;;;12.05;10.00;;;14.00;99.90;;;;;;5085691;28;20618;-72
2021/10/30 09:54:46;;;;;;;14.93;10.20;;;14.00;99.90;;;;;;5086306;28;20808;-73
2021/10/30 09:57:29;;;;;;;13.63;9.90;;;14.00;99.90;;;;;;5065193;28;20802;-72
2021/10/30 10:00:03;;;;;;;16.40;9.57;;;14.00;99.90;;;;;;5090015;28;20417;-71
2021/10/30 10:02:31;;;;;;;14.50;10.27;;;14.00;99.90;;;;;;5068701;28;20410;-73
2021/10/30 10:05:00;;;;;;;12.60;9.93;;;14.00;99.90;;;;;;5083329;28;20414;-72
2021/10/30 10:07:26;;;;;;;14.10;10.65;;;14.00;99.90;;;;;;5086377;28;20778;-71
2021/10/30 10:09:52;;;;;;;14.40;10.07;;;14.00;99.90;;;;;;5084220;28;20409;-72
2021/10/30 10:12:19;;;;;;;14.10;9.93;;;14.00;99.90;;;;;;5085980;28;20781;-74
2021/10/30 10:14:45;;;;;;;12.13;10.18;;;14.00;99.90;;;;;;5085345;28;20508;-73
2021/10/30 10:17:11;;;;;;;14.77;10.07;;;14.00;99.90;;;;;;5085928;28;20437;-71
2021/10/30 10:19:38;;;;;;;12.60;10.23;;;14.00;99.90;;;;;;5089325;28;20456;-70
2021/10/30 10:22:05;;;;;;;14.85;10.00;;;14.10;99.90;;;;;;5086017;28;20402;-71
2021/10/30 10:24:35;;;;;;;15.30;10.32;;;14.10;99.90;;;;;;5082494;28;20441;-70
2021/10/30 10:27:04;;;;;;;10.90;9.63;;;14.00;99.90;;;;;;5085336;28;20430;-72
2021/10/30 10:29:42;;;;;;;14.00;10.32;;;14.10;99.90;;;;;;5088327;28;20396;-70
2021/10/30 10:32:09;;;;;;;13.15;9.20;;;14.10;99.90;;;;;;5088433;28;20424;-72
2021/10/30 10:34:36;;;;;;;12.23;9.70;;;14.10;99.90;;;;;;5085332;28;20504;-72
2021/10/30 10:37:11;;;;;;;12.52;8.95;;;14.10;99.90;;;;;;5090161;28;20496;-73
2021/10/30 10:39:38;;;;;;;13.05;9.40;;;14.10;99.90;;;;;;5069572;28;20461;-71
2021/10/30 10:42:04;;;;;;;12.67;9.23;;;14.10;99.90;;;;;;5090283;28;20417;-72
2021/10/30 10:44:30;;;;;;;12.38;9.27;;;14.10;99.90;;;;;;5053903;28;20514;-72
2021/10/30 10:46:58;;;;;;;12.70;9.88;;;14.10;99.90;;;;;;5089338;28;20839;-72
2021/10/30 10:52:17;;;;;;;13.55;9.40;;;14.10;99.90;;;;;;5092517;28;20448;-72
2021/10/30 10:55:03;;;;;;;13.32;9.52;;;14.10;99.90;;;;;;5091005;28;21462;-70
2021/10/30 10:57:56;;;;;;;12.93;10.02;;;14.10;99.90;;;;;;5071782;28;20409;-72
2021/10/30 11:00:23;;;;;;;14.90;10.05;;;14.10;99.90;;;;;;5082486;28;20449;-73
2021/10/30 11:02:49;;;;;;;11.95;9.40;;;14.10;99.90;;;;;;5090016;28;20422;-71
2021/10/30 11:05:18;;;;;;;10.90;8.93;;;14.10;99.90;;;;;;5086998;28;20436;-72
2021/10/30 11:07:58;;;;;;;13.67;9.40;;;14.10;99.90;;;;;;5076738;28;21438;-72
2021/10/30 11:10:30;;;;;;;13.35;9.85;;;14.10;99.90;;;;;;5089419;28;20427;-70
2021/10/30 11:12:59;;;;;;;12.27;9.90;;;14.20;99.90;;;;;;5075810;28;20933;-72
2021/10/30 11:15:27;;;;;;;14.27;10.30;;;14.20;99.90;;;;;;5088316;28;20426;-71
2021/10/30 11:18:03;;;;;;;12.80;9.65;;;14.20;99.90;;;;;;5089417;28;20444;-70
2021/10/30 11:20:39;;;;;;;11.43;9.80;;;14.30;99.90;;;;;;5089131;28;20415;-73
2021/10/30 11:23:10;;;;;;;12.38;9.98;;;14.30;99.90;;;;;;5105218;28;20762;-70
2021/10/30 11:25:36;;;;;;;14.25;9.25;;;14.30;99.90;;;;;;5088388;28;20886;-71
2021/10/30 11:28:02;;;;;;;15.00;10.40;;;14.30;99.90;;;;;;5071134;28;20400;-71
2021/10/30 11:30:37;;;;;;;11.25;9.15;;;14.30;99.90;;;;;;5090323;28;20412;-73
2021/10/30 11:33:25;;;;;;;15.35;9.77;;;14.30;99.90;;;;;;5090458;28;21423;-72
2021/10/30 11:36:02;;;;;;;13.13;9.30;;;14.30;99.90;;;;;;5090951;28;20432;-73
2021/10/30 11:38:33;;;;;;;11.23;9.40;;;14.30;99.90;;;;;;5070507;28;20424;-72
2021/10/30 11:41:02;;;;;;;11.98;8.80;;;14.30;99.90;;;;;;5087499;28;20518;-73
2021/10/30 11:43:30;;;;;;;13.50;9.05;;;14.30;99.90;;;;;;5088481;28;21022;-71
2021/10/30 11:46:08;;;;;;;11.45;8.80;;;14.30;99.90;;;;;;5087568;28;20903;-72
2021/10/30 11:48:39;;;;;;;12.98;9.18;;;14.40;99.90;;;;;;5087164;28;20891;-71
2021/10/30 11:51:12;;;;;;;11.73;7.85;;;14.40;99.90;;;;;;5088518;28;20182;-71
2021/10/30 11:53:39;;;;;;;13.63;8.02;;;14.00;99.90;;;;;;5089880;28;20211;-72
2021/10/30 11:56:11;;;;;;;10.85;7.90;;;13.80;99.90;;;;;;5071188;28;20186;-73
2021/10/30 11:58:44;;;;;;;10.50;7.72;;;13.70;99.90;;;;;;5089805;28;20209;-73
2021/10/30 12:01:21;;;;;;;14.43;9.43;;;13.60;99.90;;;;;;5087688;28;20237;-73
2021/10/30 12:03:50;;;;;;;11.38;7.88;;;13.50;99.90;;;;;;5089408;28;20609;-72
2021/10/30 12:06:17;;;;;;;10.65;9.05;;;13.50;99.90;;;;;;5087860;28;20213;-71
2021/10/30 12:08:43;;;;;;;10.73;8.45;;;13.40;99.90;;;;;;5099255;28;20185;-72
2021/10/30 12:11:09;;;;;;;12.70;9.38;;;13.40;99.90;;;;;;5087193;28;20417;-73
2021/10/30 12:13:35;;;;;;;12.63;8.90;;;13.80;99.90;;;;;;5092415;28;20423;-72
2021/10/30 12:16:04;;;;;;;11.20;8.57;;;14.00;99.90;;;;;;5051803;28;20182;-72
2021/10/30 12:18:30;;;;;;;10.57;7.85;;;13.80;99.90;;;;;;5087711;28;20194;-71
2021/10/30 12:20:59;;;;;;;9.80;7.95;;;13.60;99.90;;;;;;5088852;28;20255;-73
2021/10/30 12:23:26;;;;;;;11.98;8.10;;;13.60;99.90;;;;;;5088942;28;20662;-71
2021/10/30 12:26:01;;;;;;;11.50;8.40;;;13.50;99.90;;;;;;5089723;28;20220;-72
2021/10/30 12:28:35;;;;;;;13.85;8.48;;;13.50;99.90;;;;;;5098857;28;20272;-72
2021/10/30 12:31:05;;;;;;;17.27;8.75;;;13.40;99.90;;;;;;5088831;28;20178;-70
2021/10/30 12:33:35;;;;;;;10.90;8.27;;;13.40;99.90;;;;;;5089613;28;20568;-73
2021/10/30 12:36:01;;;;;;;11.52;8.48;;;13.40;99.90;;;;;;5075368;28;20185;-71